Friday, May 06, 2016
15:01 UTC
  |  Log In   |  Register Free
Airport Search:

Southwest Georgia Regional Airport
(KABY)

FAA data valid effective Mar 31 2016 - May 26 2016 (unless otherwise noted).

 
 
 
 
 
 
 
 
 
 
 
 
 
 
Current Aviation Weather for KABY

Weather Summary


The most recent METAR observation for ABY was updated at: 12:53 UTC
METAR for KABY is not available. Closest METAR is for KCXU
KABY  (most recent observation was updatred at 61:45 UTC)
061453Z 34007KT 310V030 10SM CLR 17/07 A2997 RMK AO2 SLP149 T01720067 51009

KCXU  (19.5 nm NE)   (most recent observation was updated at 61:45 UTC)
061455Z AUTO 33006KT 290V350 10SM CLR 16/07 A2996 RMK AO2 T01600072

KMGR  (33.7 nm NW)   (most recent observation was updated at 61:43 UTC)
061435Z AUTO 34008KT 10SM CLR 16/06 A2995 RMK AO2

TAF for KABY is not available.
KABY
061120Z 0612/0712 30004KT P6SM SKC FM061400 32012G18KT P6SM SKC FM070000 32005KT P6SM SKC

GlobalAir.com is loading additional information.
 Current Weather at ABY
59.0 F° (15.0 C°)

Northwest winds at 11.5 mph
Pressure:
29.97 in
Humidity:
56%
Wind:
Northwest at 11.5 mph
Dew Point:
43.0 F° (6.1 C°)
Visibility:
10.00 mi
ABY NOAA Radar




Find All Airport Services Find A Hotel Find A Rental Car Find A Golf Course Find A Restaurant $100 Hamburger



Airport Weather Forecast for KABY

Translated METAR for KABY (1453 UTC)
METAR:
KABY 061453Z 34007KT 310V030 10SM CLR 17/07 A2997 RMK AO2 SLP149 T01720067 51009
Conditions at:
KABY (Southwest Georgia Rgnl, GA) observed 1453 UTC 06 May 2016
Temperature:
17°C (62.6°F)
Dewpoint:
7°C (44.6°F) [RH = 51.7]
Pressure:
29.97 inches Hg (1014.9 mb)
pressure at sea level is 149 in Hg
Winds:
from the NNW (340 degrees) at 8.1 mph (7 knots: 3.6 m/s)
Visibility:
10 mile(s)
Ceiling:
at least 12,000 feet AGL
Clouds:
Clear below 12,000 feet AGL
Remarks:
site is automated and HAS a precipitation sensor

Translated TAF for KABY (Southwest Georgia Rgnl, GA) (1120 UTC)
TAF text:
KABY 061120Z 0612/0712 30004KT P6SM SKC
Forecast period:
Friday May 06 2016 12:00 UTC - Saturday May 07 2016 12:00 UTC
Forecast type:
FROM: standard forecast or significant change
Winds:
from the WNW (300 degrees) at 4.6 mph (4 knots: 2.1 m/s)
Visibility:
6 or more mile(s) (9.7+ km)
Ceiling:
at least 12,000 feet AGL
Clouds:
Clear Skies
Weather:
no significant weather observed at this time
TAF text:
FM061400 32012G18KT P6SM SKC
Forecast period:
Friday May 06 2016 14:00 UTC - Saturday May 07 2016 00:00 UTC
Forecast type:
FROM: standard forecast or significant change
Winds:
from the NW (320 degrees) at 13.8 mph (12 knots: 6.2 m/s)
gusting to 20.7 mph (18 knots: 9.3 m/s)
Visibility:
6 or more mile(s) (9.7+ km)
Ceiling:
at least 12,000 feet AGL
Clouds:
Clear Skies
Weather:
no significant weather observed at this time
TAF text:
FM070000 32005KT P6SM SKC
Forecast period:
Saturday May 07 2016 00:00 UTC - Saturday May 07 2016 12:00 UTC
Forecast type:
FROM: standard forecast or significant change
Winds:
from the NW (320 degrees) at 5.8 mph (5 knots: 2.6 m/s)
Visibility:
6 or more mile(s) (9.7+ km)
Ceiling:
at least 12,000 feet AGL
Clouds:
Clear Skies
Weather:
no significant weather observed at this time
FBO's on the Field
FBO Company Facility Photos Services Transportation Aviation Fuel Prices: Prices include tax
Catering Weather Repair Courtesy Rental Type 100LL JetA JetA+ MOGAS 8087
 
Eagles of America, Inc. - ABY

Currently rated 5 by 1 person
FS:Epic
Last Updated: Apr-21
Login to update fuel prices
SS:
Contact Eagles of America, Inc. - ABYMore FBO Information
 
Add another FBO Facility Photos Catering Weather Repair Courtesy Rental Type 100LL JetA JetA+ MOGAS 8087
Services Transportation Aviation Fuel Prices: Prices include tax


model-print
model-print
model-print
model-print